sensor_id;sensor_type;location;lat;lon;timestamp;temperature;humidity
4081;DHT22;2055;50.074;8.436;2023-08-08T00:01:48;14.20;99.90
4081;DHT22;2055;50.074;8.436;2023-08-08T00:04:14;14.10;99.90
4081;DHT22;2055;50.074;8.436;2023-08-08T00:06:39;14.20;99.90
4081;DHT22;2055;50.074;8.436;2023-08-08T00:09:05;14.10;99.90
4081;DHT22;2055;50.074;8.436;2023-08-08T00:11:30;14.10;99.90
4081;DHT22;2055;50.074;8.436;2023-08-08T00:13:57;14.10;99.90
4081;DHT22;2055;50.074;8.436;2023-08-08T00:16:23;14.10;99.90
4081;DHT22;2055;50.074;8.436;2023-08-08T00:18:49;14.00;99.90
4081;DHT22;2055;50.074;8.436;2023-08-08T00:21:16;14.50;99.90
4081;DHT22;2055;50.074;8.436;2023-08-08T00:23:42;14.00;99.90
4081;DHT22;2055;50.074;8.436;2023-08-08T00:26:07;14.10;99.90
4081;DHT22;2055;50.074;8.436;2023-08-08T00:28:33;14.00;99.90
4081;DHT22;2055;50.074;8.436;2023-08-08T00:30:58;14.10;99.90
4081;DHT22;2055;50.074;8.436;2023-08-08T00:33:24;14.10;99.90
4081;DHT22;2055;50.074;8.436;2023-08-08T00:35:49;14.20;99.90
4081;DHT22;2055;50.074;8.436;2023-08-08T00:38:15;14.20;99.90
4081;DHT22;2055;50.074;8.436;2023-08-08T00:40:41;14.10;99.90
4081;DHT22;2055;50.074;8.436;2023-08-08T00:43:07;14.10;99.90
4081;DHT22;2055;50.074;8.436;2023-08-08T00:45:32;14.00;99.90
4081;DHT22;2055;50.074;8.436;2023-08-08T00:47:59;14.10;99.90
4081;DHT22;2055;50.074;8.436;2023-08-08T00:50:27;14.10;99.90
4081;DHT22;2055;50.074;8.436;2023-08-08T00:52:53;14.10;99.90
4081;DHT22;2055;50.074;8.436;2023-08-08T00:55:19;14.00;99.90
4081;DHT22;2055;50.074;8.436;2023-08-08T00:57:45;14.10;99.90
4081;DHT22;2055;50.074;8.436;2023-08-08T01:00:11;14.10;99.90
4081;DHT22;2055;50.074;8.436;2023-08-08T01:02:37;14.10;99.90
4081;DHT22;2055;50.074;8.436;2023-08-08T01:05:03;14.10;99.90
4081;DHT22;2055;50.074;8.436;2023-08-08T01:08:05;14.10;99.90
4081;DHT22;2055;50.074;8.436;2023-08-08T01:10:39;14.00;99.90
4081;DHT22;2055;50.074;8.436;2023-08-08T01:13:08;14.10;99.90
4081;DHT22;2055;50.074;8.436;2023-08-08T01:15:35;14.10;99.90
4081;DHT22;2055;50.074;8.436;2023-08-08T01:18:06;14.10;99.90
4081;DHT22;2055;50.074;8.436;2023-08-08T01:20:33;14.00;99.90
4081;DHT22;2055;50.074;8.436;2023-08-08T01:23:09;14.00;99.90
4081;DHT22;2055;50.074;8.436;2023-08-08T01:25:37;14.00;99.90
4081;DHT22;2055;50.074;8.436;2023-08-08T01:28:04;14.00;99.90
4081;DHT22;2055;50.074;8.436;2023-08-08T01:30:30;14.00;99.90
4081;DHT22;2055;50.074;8.436;2023-08-08T01:32:56;13.90;99.90
4081;DHT22;2055;50.074;8.436;2023-08-08T01:35:21;13.90;99.90
4081;DHT22;2055;50.074;8.436;2023-08-08T01:37:50;13.80;99.90
4081;DHT22;2055;50.074;8.436;2023-08-08T01:40:18;13.80;99.90
4081;DHT22;2055;50.074;8.436;2023-08-08T01:42:47;13.70;99.90
4081;DHT22;2055;50.074;8.436;2023-08-08T01:45:15;13.60;99.90
4081;DHT22;2055;50.074;8.436;2023-08-08T01:47:40;13.60;99.90
4081;DHT22;2055;50.074;8.436;2023-08-08T01:50:07;13.40;99.90
4081;DHT22;2055;50.074;8.436;2023-08-08T01:52:34;13.40;99.90
4081;DHT22;2055;50.074;8.436;2023-08-08T01:55:00;13.30;99.90
4081;DHT22;2055;50.074;8.436;2023-08-08T01:57:25;13.30;99.90
4081;DHT22;2055;50.074;8.436;2023-08-08T01:59:51;13.30;99.90
4081;DHT22;2055;50.074;8.436;2023-08-08T02:02:16;13.20;99.90
4081;DHT22;2055;50.074;8.436;2023-08-08T02:04:43;13.20;99.90
4081;DHT22;2055;50.074;8.436;2023-08-08T02:07:08;13.20;99.90
4081;DHT22;2055;50.074;8.436;2023-08-08T02:09:34;13.10;99.90
4081;DHT22;2055;50.074;8.436;2023-08-08T02:11:59;13.10;99.90
4081;DHT22;2055;50.074;8.436;2023-08-08T02:14:25;13.10;99.90
4081;DHT22;2055;50.074;8.436;2023-08-08T02:16:50;13.00;99.90
4081;DHT22;2055;50.074;8.436;2023-08-08T02:19:16;12.90;99.90
4081;DHT22;2055;50.074;8.436;2023-08-08T02:21:41;12.80;99.90
4081;DHT22;2055;50.074;8.436;2023-08-08T02:24:07;12.80;99.90
4081;DHT22;2055;50.074;8.436;2023-08-08T02:26:32;12.70;99.90
4081;DHT22;2055;50.074;8.436;2023-08-08T02:28:58;12.70;99.90
4081;DHT22;2055;50.074;8.436;2023-08-08T02:31:24;12.70;99.90
4081;DHT22;2055;50.074;8.436;2023-08-08T02:33:50;12.60;99.90
4081;DHT22;2055;50.074;8.436;2023-08-08T02:36:16;12.50;99.90
4081;DHT22;2055;50.074;8.436;2023-08-08T02:38:42;12.40;99.90
4081;DHT22;2055;50.074;8.436;2023-08-08T02:41:08;12.40;99.90
4081;DHT22;2055;50.074;8.436;2023-08-08T02:43:33;12.50;99.90
4081;DHT22;2055;50.074;8.436;2023-08-08T02:45:59;12.60;99.90
4081;DHT22;2055;50.074;8.436;2023-08-08T02:48:24;12.50;99.90
4081;DHT22;2055;50.074;8.436;2023-08-08T02:50:50;12.50;99.90
4081;DHT22;2055;50.074;8.436;2023-08-08T02:53:15;12.50;99.90
4081;DHT22;2055;50.074;8.436;2023-08-08T02:55:41;12.60;99.90
4081;DHT22;2055;50.074;8.436;2023-08-08T02:58:06;12.60;99.90
4081;DHT22;2055;50.074;8.436;2023-08-08T03:00:32;12.60;99.90
4081;DHT22;2055;50.074;8.436;2023-08-08T03:02:57;12.50;99.90
4081;DHT22;2055;50.074;8.436;2023-08-08T03:05:23;12.50;99.90
4081;DHT22;2055;50.074;8.436;2023-08-08T03:07:49;12.50;99.90
4081;DHT22;2055;50.074;8.436;2023-08-08T03:10:14;12.50;99.90
4081;DHT22;2055;50.074;8.436;2023-08-08T03:12:40;12.40;99.90
4081;DHT22;2055;50.074;8.436;2023-08-08T03:15:07;12.40;99.90
4081;DHT22;2055;50.074;8.436;2023-08-08T03:17:33;12.40;99.90
4081;DHT22;2055;50.074;8.436;2023-08-08T03:19:59;12.30;99.90
4081;DHT22;2055;50.074;8.436;2023-08-08T03:22:24;12.30;99.90
4081;DHT22;2055;50.074;8.436;2023-08-08T03:24:50;12.40;99.90
4081;DHT22;2055;50.074;8.436;2023-08-08T03:27:15;12.40;99.90
4081;DHT22;2055;50.074;8.436;2023-08-08T03:29:41;12.30;99.90
4081;DHT22;2055;50.074;8.436;2023-08-08T03:32:06;12.30;99.90
4081;DHT22;2055;50.074;8.436;2023-08-08T03:34:32;12.30;99.90
4081;DHT22;2055;50.074;8.436;2023-08-08T03:36:58;12.30;99.90
4081;DHT22;2055;50.074;8.436;2023-08-08T03:39:23;12.20;99.90
4081;DHT22;2055;50.074;8.436;2023-08-08T03:41:49;12.20;99.90
4081;DHT22;2055;50.074;8.436;2023-08-08T03:44:14;12.30;99.90
4081;DHT22;2055;50.074;8.436;2023-08-08T03:46:40;12.20;99.90
4081;DHT22;2055;50.074;8.436;2023-08-08T03:49:05;12.20;99.90
4081;DHT22;2055;50.074;8.436;2023-08-08T03:51:31;12.20;99.90
4081;DHT22;2055;50.074;8.436;2023-08-08T03:53:56;12.20;99.90
4081;DHT22;2055;50.074;8.436;2023-08-08T03:56:22;12.20;99.90
4081;DHT22;2055;50.074;8.436;2023-08-08T03:58:48;12.20;99.90
4081;DHT22;2055;50.074;8.436;2023-08-08T04:01:13;12.20;99.90
4081;DHT22;2055;50.074;8.436;2023-08-08T04:03:39;12.20;99.90
4081;DHT22;2055;50.074;8.436;2023-08-08T04:06:04;12.20;99.90
4081;DHT22;2055;50.074;8.436;2023-08-08T04:08:30;12.20;99.90
4081;DHT22;2055;50.074;8.436;2023-08-08T04:10:55;12.20;99.90
4081;DHT22;2055;50.074;8.436;2023-08-08T04:13:21;12.10;99.90
4081;DHT22;2055;50.074;8.436;2023-08-08T04:15:46;12.00;99.90
4081;DHT22;2055;50.074;8.436;2023-08-08T04:18:12;12.00;99.90
4081;DHT22;2055;50.074;8.436;2023-08-08T04:20:37;12.10;99.90
4081;DHT22;2055;50.074;8.436;2023-08-08T04:23:03;12.10;99.90
4081;DHT22;2055;50.074;8.436;2023-08-08T04:25:29;12.10;99.90
4081;DHT22;2055;50.074;8.436;2023-08-08T04:27:55;12.10;99.90
4081;DHT22;2055;50.074;8.436;2023-08-08T04:30:21;12.00;99.90
4081;DHT22;2055;50.074;8.436;2023-08-08T04:32:46;12.00;99.90
4081;DHT22;2055;50.074;8.436;2023-08-08T04:35:12;12.10;99.90
4081;DHT22;2055;50.074;8.436;2023-08-08T04:37:37;12.00;99.90
4081;DHT22;2055;50.074;8.436;2023-08-08T04:40:03;12.00;99.90
4081;DHT22;2055;50.074;8.436;2023-08-08T04:42:29;12.00;99.90
4081;DHT22;2055;50.074;8.436;2023-08-08T04:44:55;12.00;99.90
4081;DHT22;2055;50.074;8.436;2023-08-08T04:47:20;12.00;99.90
4081;DHT22;2055;50.074;8.436;2023-08-08T04:49:46;12.10;99.90
4081;DHT22;2055;50.074;8.436;2023-08-08T04:52:12;12.20;99.90
4081;DHT22;2055;50.074;8.436;2023-08-08T04:54:37;12.20;99.90
4081;DHT22;2055;50.074;8.436;2023-08-08T04:57:03;12.20;99.90
4081;DHT22;2055;50.074;8.436;2023-08-08T04:59:28;12.30;99.90
4081;DHT22;2055;50.074;8.436;2023-08-08T05:01:54;12.30;99.90
4081;DHT22;2055;50.074;8.436;2023-08-08T05:04:19;12.40;99.90
4081;DHT22;2055;50.074;8.436;2023-08-08T05:06:45;12.40;99.90
4081;DHT22;2055;50.074;8.436;2023-08-08T05:09:11;12.50;99.90
4081;DHT22;2055;50.074;8.436;2023-08-08T05:11:37;12.50;99.90
4081;DHT22;2055;50.074;8.436;2023-08-08T05:14:02;12.50;99.90
4081;DHT22;2055;50.074;8.436;2023-08-08T05:16:28;12.60;99.90
4081;DHT22;2055;50.074;8.436;2023-08-08T05:18:54;12.70;99.90
4081;DHT22;2055;50.074;8.436;2023-08-08T05:21:21;12.70;99.90
4081;DHT22;2055;50.074;8.436;2023-08-08T05:23:46;12.80;99.90
4081;DHT22;2055;50.074;8.436;2023-08-08T05:26:13;12.90;99.90
4081;DHT22;2055;50.074;8.436;2023-08-08T05:28:38;12.90;99.90
4081;DHT22;2055;50.074;8.436;2023-08-08T05:31:04;12.90;99.90
4081;DHT22;2055;50.074;8.436;2023-08-08T05:33:29;13.10;99.90
4081;DHT22;2055;50.074;8.436;2023-08-08T05:35:55;13.10;99.90
4081;DHT22;2055;50.074;8.436;2023-08-08T05:38:20;13.20;99.90
4081;DHT22;2055;50.074;8.436;2023-08-08T05:40:46;13.20;99.90
4081;DHT22;2055;50.074;8.436;2023-08-08T05:43:11;13.20;99.90
4081;DHT22;2055;50.074;8.436;2023-08-08T05:45:42;13.30;99.90
4081;DHT22;2055;50.074;8.436;2023-08-08T05:48:08;13.30;99.90
4081;DHT22;2055;50.074;8.436;2023-08-08T05:50:37;13.50;99.90
4081;DHT22;2055;50.074;8.436;2023-08-08T05:53:03;13.40;99.90
4081;DHT22;2055;50.074;8.436;2023-08-08T05:55:29;13.40;99.90
4081;DHT22;2055;50.074;8.436;2023-08-08T05:57:54;13.40;99.90
4081;DHT22;2055;50.074;8.436;2023-08-08T06:00:20;13.40;99.90
4081;DHT22;2055;50.074;8.436;2023-08-08T06:02:45;13.50;99.90
4081;DHT22;2055;50.074;8.436;2023-08-08T06:05:11;13.50;99.90
4081;DHT22;2055;50.074;8.436;2023-08-08T06:07:37;13.50;99.90
4081;DHT22;2055;50.074;8.436;2023-08-08T06:10:04;13.60;99.90
4081;DHT22;2055;50.074;8.436;2023-08-08T06:12:29;13.70;99.90
4081;DHT22;2055;50.074;8.436;2023-08-08T06:14:55;13.70;99.90
4081;DHT22;2055;50.074;8.436;2023-08-08T06:17:20;13.80;99.90
4081;DHT22;2055;50.074;8.436;2023-08-08T06:19:49;13.90;99.90
4081;DHT22;2055;50.074;8.436;2023-08-08T06:22:15;14.10;99.90
4081;DHT22;2055;50.074;8.436;2023-08-08T06:24:41;14.00;99.90
4081;DHT22;2055;50.074;8.436;2023-08-08T06:27:06;14.00;99.90
4081;DHT22;2055;50.074;8.436;2023-08-08T06:29:32;14.20;99.90
4081;DHT22;2055;50.074;8.436;2023-08-08T06:31:58;14.40;99.90
4081;DHT22;2055;50.074;8.436;2023-08-08T06:34:23;14.40;99.90
4081;DHT22;2055;50.074;8.436;2023-08-08T06:36:49;14.50;99.90
4081;DHT22;2055;50.074;8.436;2023-08-08T06:39:15;14.50;99.90
4081;DHT22;2055;50.074;8.436;2023-08-08T06:41:40;14.60;99.90
4081;DHT22;2055;50.074;8.436;2023-08-08T06:44:07;15.00;99.90
4081;DHT22;2055;50.074;8.436;2023-08-08T06:46:33;14.70;99.90
4081;DHT22;2055;50.074;8.436;2023-08-08T06:48:58;14.80;99.90
4081;DHT22;2055;50.074;8.436;2023-08-08T06:51:25;14.80;99.90
4081;DHT22;2055;50.074;8.436;2023-08-08T06:53:51;15.00;99.90
4081;DHT22;2055;50.074;8.436;2023-08-08T06:56:17;15.00;99.90
4081;DHT22;2055;50.074;8.436;2023-08-08T06:58:42;15.10;99.90
4081;DHT22;2055;50.074;8.436;2023-08-08T07:01:08;15.20;99.90
4081;DHT22;2055;50.074;8.436;2023-08-08T07:03:35;15.30;99.90
4081;DHT22;2055;50.074;8.436;2023-08-08T07:06:01;15.50;99.90
4081;DHT22;2055;50.074;8.436;2023-08-08T07:08:26;15.70;99.90
4081;DHT22;2055;50.074;8.436;2023-08-08T07:10:52;15.70;99.90
4081;DHT22;2055;50.074;8.436;2023-08-08T07:13:17;15.80;99.90
4081;DHT22;2055;50.074;8.436;2023-08-08T07:15:43;15.90;99.90
4081;DHT22;2055;50.074;8.436;2023-08-08T07:18:08;16.10;99.90
4081;DHT22;2055;50.074;8.436;2023-08-08T07:20:34;16.10;99.90
4081;DHT22;2055;50.074;8.436;2023-08-08T07:22:59;16.10;99.90
4081;DHT22;2055;50.074;8.436;2023-08-08T07:25:26;16.20;99.90
4081;DHT22;2055;50.074;8.436;2023-08-08T07:27:52;16.20;99.90
4081;DHT22;2055;50.074;8.436;2023-08-08T07:30:17;16.30;99.90
4081;DHT22;2055;50.074;8.436;2023-08-08T07:32:43;16.50;99.90
4081;DHT22;2055;50.074;8.436;2023-08-08T07:35:08;16.60;99.90
4081;DHT22;2055;50.074;8.436;2023-08-08T07:37:34;16.80;99.90
4081;DHT22;2055;50.074;8.436;2023-08-08T07:40:01;16.90;99.90
4081;DHT22;2055;50.074;8.436;2023-08-08T07:42:26;17.00;99.90
4081;DHT22;2055;50.074;8.436;2023-08-08T07:44:52;17.40;99.90
4081;DHT22;2055;50.074;8.436;2023-08-08T07:47:17;17.40;99.90
4081;DHT22;2055;50.074;8.436;2023-08-08T07:49:43;17.30;99.90
4081;DHT22;2055;50.074;8.436;2023-08-08T07:52:09;17.20;99.90
4081;DHT22;2055;50.074;8.436;2023-08-08T07:54:34;17.30;99.90
4081;DHT22;2055;50.074;8.436;2023-08-08T07:57:00;17.30;99.90
4081;DHT22;2055;50.074;8.436;2023-08-08T07:59:25;17.40;99.90
4081;DHT22;2055;50.074;8.436;2023-08-08T08:01:52;17.50;99.90
4081;DHT22;2055;50.074;8.436;2023-08-08T08:04:17;17.50;99.90
4081;DHT22;2055;50.074;8.436;2023-08-08T08:06:43;17.60;99.90
4081;DHT22;2055;50.074;8.436;2023-08-08T08:09:08;17.90;99.90
4081;DHT22;2055;50.074;8.436;2023-08-08T08:11:34;18.10;99.90
4081;DHT22;2055;50.074;8.436;2023-08-08T08:13:59;18.00;99.90
4081;DHT22;2055;50.074;8.436;2023-08-08T08:16:25;18.00;99.90
4081;DHT22;2055;50.074;8.436;2023-08-08T08:18:50;18.30;99.90
4081;DHT22;2055;50.074;8.436;2023-08-08T08:21:16;18.00;99.90
4081;DHT22;2055;50.074;8.436;2023-08-08T08:23:43;18.10;99.90
4081;DHT22;2055;50.074;8.436;2023-08-08T08:26:09;17.90;99.90
4081;DHT22;2055;50.074;8.436;2023-08-08T08:28:34;17.70;99.90
4081;DHT22;2055;50.074;8.436;2023-08-08T08:31:07;18.20;99.90
4081;DHT22;2055;50.074;8.436;2023-08-08T08:33:33;18.50;99.90
4081;DHT22;2055;50.074;8.436;2023-08-08T08:35:58;18.50;99.90
4081;DHT22;2055;50.074;8.436;2023-08-08T08:38:24;18.60;99.90
4081;DHT22;2055;50.074;8.436;2023-08-08T08:40:51;18.40;99.90
4081;DHT22;2055;50.074;8.436;2023-08-08T08:43:18;18.20;99.90
4081;DHT22;2055;50.074;8.436;2023-08-08T08:45:49;18.20;99.90
4081;DHT22;2055;50.074;8.436;2023-08-08T08:48:16;18.40;99.90
4081;DHT22;2055;50.074;8.436;2023-08-08T08:50:42;18.50;99.90
4081;DHT22;2055;50.074;8.436;2023-08-08T08:53:10;18.40;99.90
4081;DHT22;2055;50.074;8.436;2023-08-08T08:55:36;18.30;99.90
4081;DHT22;2055;50.074;8.436;2023-08-08T08:58:02;18.40;99.90
4081;DHT22;2055;50.074;8.436;2023-08-08T09:00:29;18.20;99.90
4081;DHT22;2055;50.074;8.436;2023-08-08T09:02:55;18.10;99.90
4081;DHT22;2055;50.074;8.436;2023-08-08T09:05:22;18.10;99.90
4081;DHT22;2055;50.074;8.436;2023-08-08T09:07:49;18.30;99.90
4081;DHT22;2055;50.074;8.436;2023-08-08T09:10:17;18.60;99.90
4081;DHT22;2055;50.074;8.436;2023-08-08T09:12:43;18.90;99.90
4081;DHT22;2055;50.074;8.436;2023-08-08T09:15:10;19.00;99.90
4081;DHT22;2055;50.074;8.436;2023-08-08T09:17:36;19.00;99.90
4081;DHT22;2055;50.074;8.436;2023-08-08T09:20:05;19.30;99.90
4081;DHT22;2055;50.074;8.436;2023-08-08T09:22:32;20.80;99.90
4081;DHT22;2055;50.074;8.436;2023-08-08T09:24:58;19.80;99.90
4081;DHT22;2055;50.074;8.436;2023-08-08T09:27:23;19.40;99.90
4081;DHT22;2055;50.074;8.436;2023-08-08T09:29:49;19.30;99.90
4081;DHT22;2055;50.074;8.436;2023-08-08T09:32:15;19.60;99.90
4081;DHT22;2055;50.074;8.436;2023-08-08T09:34:43;19.70;99.90
4081;DHT22;2055;50.074;8.436;2023-08-08T09:37:09;19.60;99.90
4081;DHT22;2055;50.074;8.436;2023-08-08T09:39:36;19.60;99.90
4081;DHT22;2055;50.074;8.436;2023-08-08T09:42:02;19.80;99.90
4081;DHT22;2055;50.074;8.436;2023-08-08T09:44:29;20.30;99.90
4081;DHT22;2055;50.074;8.436;2023-08-08T09:46:56;20.30;99.90
4081;DHT22;2055;50.074;8.436;2023-08-08T09:49:22;20.50;99.90
4081;DHT22;2055;50.074;8.436;2023-08-08T09:51:49;20.40;99.90
4081;DHT22;2055;50.074;8.436;2023-08-08T09:54:15;20.10;99.90
4081;DHT22;2055;50.074;8.436;2023-08-08T09:56:40;20.10;99.90
4081;DHT22;2055;50.074;8.436;2023-08-08T09:59:08;20.10;99.90
4081;DHT22;2055;50.074;8.436;2023-08-08T10:01:34;20.00;99.90
4081;DHT22;2055;50.074;8.436;2023-08-08T10:04:02;20.30;99.90
4081;DHT22;2055;50.074;8.436;2023-08-08T10:06:28;20.80;99.90
4081;DHT22;2055;50.074;8.436;2023-08-08T10:08:55;20.60;99.90
4081;DHT22;2055;50.074;8.436;2023-08-08T10:11:22;20.80;99.90
4081;DHT22;2055;50.074;8.436;2023-08-08T10:13:49;20.70;99.90
4081;DHT22;2055;50.074;8.436;2023-08-08T10:16:16;20.80;99.90
4081;DHT22;2055;50.074;8.436;2023-08-08T10:18:42;21.30;99.90
4081;DHT22;2055;50.074;8.436;2023-08-08T10:21:08;21.20;99.90
4081;DHT22;2055;50.074;8.436;2023-08-08T10:23:37;20.90;99.90
4081;DHT22;2055;50.074;8.436;2023-08-08T10:26:03;21.10;99.90
4081;DHT22;2055;50.074;8.436;2023-08-08T10:28:29;21.70;99.90
4081;DHT22;2055;50.074;8.436;2023-08-08T10:30:58;21.80;99.90
4081;DHT22;2055;50.074;8.436;2023-08-08T10:33:26;21.30;99.90
4081;DHT22;2055;50.074;8.436;2023-08-08T10:36:00;21.00;99.90
4081;DHT22;2055;50.074;8.436;2023-08-08T10:38:27;20.60;99.90
4081;DHT22;2055;50.074;8.436;2023-08-08T10:41:03;20.40;99.90
4081;DHT22;2055;50.074;8.436;2023-08-08T10:43:29;20.70;99.90
4081;DHT22;2055;50.074;8.436;2023-08-08T10:46:02;20.60;99.90
4081;DHT22;2055;50.074;8.436;2023-08-08T10:48:27;20.80;99.90
4081;DHT22;2055;50.074;8.436;2023-08-08T10:51:00;20.50;99.90
4081;DHT22;2055;50.074;8.436;2023-08-08T10:53:29;20.40;99.90
4081;DHT22;2055;50.074;8.436;2023-08-08T10:56:02;20.70;99.90
4081;DHT22;2055;50.074;8.436;2023-08-08T10:58:38;20.90;99.90
4081;DHT22;2055;50.074;8.436;2023-08-08T11:01:05;20.80;99.90
4081;DHT22;2055;50.074;8.436;2023-08-08T11:03:34;20.80;99.90
4081;DHT22;2055;50.074;8.436;2023-08-08T11:06:01;20.50;99.90
4081;DHT22;2055;50.074;8.436;2023-08-08T11:08:29;20.40;99.90
4081;DHT22;2055;50.074;8.436;2023-08-08T11:10:56;20.10;99.90
4081;DHT22;2055;50.074;8.436;2023-08-08T11:13:21;20.30;99.90
4081;DHT22;2055;50.074;8.436;2023-08-08T11:15:47;20.60;99.90
4081;DHT22;2055;50.074;8.436;2023-08-08T11:18:13;20.40;99.90
4081;DHT22;2055;50.074;8.436;2023-08-08T11:20:38;20.30;99.90
4081;DHT22;2055;50.074;8.436;2023-08-08T11:23:05;20.40;99.90
4081;DHT22;2055;50.074;8.436;2023-08-08T11:25:35;20.20;99.90
4081;DHT22;2055;50.074;8.436;2023-08-08T11:28:02;20.30;99.90
4081;DHT22;2055;50.074;8.436;2023-08-08T11:30:29;20.50;99.90
4081;DHT22;2055;50.074;8.436;2023-08-08T11:32:55;20.50;99.90
4081;DHT22;2055;50.074;8.436;2023-08-08T11:35:25;20.80;99.90
4081;DHT22;2055;50.074;8.436;2023-08-08T11:37:53;21.00;99.90
4081;DHT22;2055;50.074;8.436;2023-08-08T11:40:19;20.70;99.90
4081;DHT22;2055;50.074;8.436;2023-08-08T11:42:46;20.60;99.90
4081;DHT22;2055;50.074;8.436;2023-08-08T11:45:12;20.80;99.90
4081;DHT22;2055;50.074;8.436;2023-08-08T11:47:41;21.10;99.90
4081;DHT22;2055;50.074;8.436;2023-08-08T11:50:08;21.00;99.90
4081;DHT22;2055;50.074;8.436;2023-08-08T11:52:40;21.00;99.90
4081;DHT22;2055;50.074;8.436;2023-08-08T11:55:10;21.40;99.90
4081;DHT22;2055;50.074;8.436;2023-08-08T11:57:37;22.10;99.90
4081;DHT22;2055;50.074;8.436;2023-08-08T12:00:10;22.00;99.90
4081;DHT22;2055;50.074;8.436;2023-08-08T12:02:40;21.40;99.90
4081;DHT22;2055;50.074;8.436;2023-08-08T12:05:08;21.10;99.90
4081;DHT22;2055;50.074;8.436;2023-08-08T12:07:35;21.20;99.90
4081;DHT22;2055;50.074;8.436;2023-08-08T12:10:02;21.10;99.90
4081;DHT22;2055;50.074;8.436;2023-08-08T12:12:27;21.50;99.90
4081;DHT22;2055;50.074;8.436;2023-08-08T12:14:56;21.60;99.90
4081;DHT22;2055;50.074;8.436;2023-08-08T12:17:22;21.70;99.90
4081;DHT22;2055;50.074;8.436;2023-08-08T12:19:47;21.60;99.90
4081;DHT22;2055;50.074;8.436;2023-08-08T12:22:14;21.40;99.90
4081;DHT22;2055;50.074;8.436;2023-08-08T12:24:40;21.10;99.90
4081;DHT22;2055;50.074;8.436;2023-08-08T12:27:06;21.20;99.90
4081;DHT22;2055;50.074;8.436;2023-08-08T12:29:31;21.90;99.90
4081;DHT22;2055;50.074;8.436;2023-08-08T12:31:57;22.10;99.90
4081;DHT22;2055;50.074;8.436;2023-08-08T12:34:22;21.60;99.90
4081;DHT22;2055;50.074;8.436;2023-08-08T12:36:48;21.70;99.90
4081;DHT22;2055;50.074;8.436;2023-08-08T12:39:14;21.40;99.90
4081;DHT22;2055;50.074;8.436;2023-08-08T12:41:39;21.40;99.90
4081;DHT22;2055;50.074;8.436;2023-08-08T12:44:05;21.30;99.90
4081;DHT22;2055;50.074;8.436;2023-08-08T12:46:31;20.80;99.90
4081;DHT22;2055;50.074;8.436;2023-08-08T12:48:56;20.70;99.90
4081;DHT22;2055;50.074;8.436;2023-08-08T12:51:22;20.80;99.90
4081;DHT22;2055;50.074;8.436;2023-08-08T12:53:48;21.50;99.90
4081;DHT22;2055;50.074;8.436;2023-08-08T12:56:14;21.60;99.90
4081;DHT22;2055;50.074;8.436;2023-08-08T12:58:39;21.50;99.90
4081;DHT22;2055;50.074;8.436;2023-08-08T13:01:06;21.30;99.90
4081;DHT22;2055;50.074;8.436;2023-08-08T13:03:32;21.50;99.90
4081;DHT22;2055;50.074;8.436;2023-08-08T13:05:59;21.70;99.90
4081;DHT22;2055;50.074;8.436;2023-08-08T13:08:25;21.70;99.90
4081;DHT22;2055;50.074;8.436;2023-08-08T13:10:51;21.60;99.90
4081;DHT22;2055;50.074;8.436;2023-08-08T13:13:16;22.30;99.90
4081;DHT22;2055;50.074;8.436;2023-08-08T13:15:42;22.80;99.90
4081;DHT22;2055;50.074;8.436;2023-08-08T13:18:07;22.50;99.90
4081;DHT22;2055;50.074;8.436;2023-08-08T13:20:33;22.00;99.90
4081;DHT22;2055;50.074;8.436;2023-08-08T13:22:58;21.70;99.90
4081;DHT22;2055;50.074;8.436;2023-08-08T13:25:24;21.50;99.90
4081;DHT22;2055;50.074;8.436;2023-08-08T13:27:49;21.80;99.90
4081;DHT22;2055;50.074;8.436;2023-08-08T13:30:15;21.20;99.90
4081;DHT22;2055;50.074;8.436;2023-08-08T13:32:42;21.00;99.90
4081;DHT22;2055;50.074;8.436;2023-08-08T13:35:07;20.90;99.90
4081;DHT22;2055;50.074;8.436;2023-08-08T13:37:33;20.70;99.90
4081;DHT22;2055;50.074;8.436;2023-08-08T13:39:58;20.70;99.90
4081;DHT22;2055;50.074;8.436;2023-08-08T13:42:24;21.00;99.90
4081;DHT22;2055;50.074;8.436;2023-08-08T13:44:49;21.30;99.90
4081;DHT22;2055;50.074;8.436;2023-08-08T13:47:15;21.40;99.90
4081;DHT22;2055;50.074;8.436;2023-08-08T13:49:41;21.30;99.90
4081;DHT22;2055;50.074;8.436;2023-08-08T13:52:06;21.30;99.90
4081;DHT22;2055;50.074;8.436;2023-08-08T13:54:32;21.20;99.90
4081;DHT22;2055;50.074;8.436;2023-08-08T13:56:57;21.10;99.90
4081;DHT22;2055;50.074;8.436;2023-08-08T13:59:23;20.70;99.90
4081;DHT22;2055;50.074;8.436;2023-08-08T14:01:49;20.90;99.90
4081;DHT22;2055;50.074;8.436;2023-08-08T14:04:14;20.90;99.90
4081;DHT22;2055;50.074;8.436;2023-08-08T14:06:40;21.20;99.90
4081;DHT22;2055;50.074;8.436;2023-08-08T14:09:06;21.70;99.90
4081;DHT22;2055;50.074;8.436;2023-08-08T14:11:32;22.20;99.90
4081;DHT22;2055;50.074;8.436;2023-08-08T14:13:58;22.10;99.90
4081;DHT22;2055;50.074;8.436;2023-08-08T14:16:23;21.60;99.90
4081;DHT22;2055;50.074;8.436;2023-08-08T14:18:49;21.30;99.90
4081;DHT22;2055;50.074;8.436;2023-08-08T14:21:15;20.90;99.90
4081;DHT22;2055;50.074;8.436;2023-08-08T14:23:40;20.90;99.90
4081;DHT22;2055;50.074;8.436;2023-08-08T14:26:06;20.80;99.90
4081;DHT22;2055;50.074;8.436;2023-08-08T14:28:31;20.70;99.90
4081;DHT22;2055;50.074;8.436;2023-08-08T14:30:57;20.50;99.90
4081;DHT22;2055;50.074;8.436;2023-08-08T14:33:23;20.40;99.90
4081;DHT22;2055;50.074;8.436;2023-08-08T14:35:49;20.30;99.90
4081;DHT22;2055;50.074;8.436;2023-08-08T14:38:15;20.00;99.90
4081;DHT22;2055;50.074;8.436;2023-08-08T14:40:41;18.20;99.90
4081;DHT22;2055;50.074;8.436;2023-08-08T14:43:06;19.80;99.90
4081;DHT22;2055;50.074;8.436;2023-08-08T14:45:36;19.70;99.90
4081;DHT22;2055;50.074;8.436;2023-08-08T14:48:04;19.70;99.90
4081;DHT22;2055;50.074;8.436;2023-08-08T14:50:30;19.70;99.90
4081;DHT22;2055;50.074;8.436;2023-08-08T14:52:56;19.70;99.90
4081;DHT22;2055;50.074;8.436;2023-08-08T14:55:21;19.70;99.90
4081;DHT22;2055;50.074;8.436;2023-08-08T14:57:47;19.70;99.90
4081;DHT22;2055;50.074;8.436;2023-08-08T15:00:12;19.90;99.90
4081;DHT22;2055;50.074;8.436;2023-08-08T15:02:38;19.90;99.90
4081;DHT22;2055;50.074;8.436;2023-08-08T15:05:04;20.00;99.90
4081;DHT22;2055;50.074;8.436;2023-08-08T15:07:30;20.00;99.90
4081;DHT22;2055;50.074;8.436;2023-08-08T15:09:55;20.10;99.90
4081;DHT22;2055;50.074;8.436;2023-08-08T15:12:21;20.10;99.90
4081;DHT22;2055;50.074;8.436;2023-08-08T15:14:46;20.00;99.90
4081;DHT22;2055;50.074;8.436;2023-08-08T15:17:14;20.00;99.90
4081;DHT22;2055;50.074;8.436;2023-08-08T15:19:39;19.70;99.90
4081;DHT22;2055;50.074;8.436;2023-08-08T15:22:05;19.70;99.90
4081;DHT22;2055;50.074;8.436;2023-08-08T15:24:31;19.70;99.90
4081;DHT22;2055;50.074;8.436;2023-08-08T15:26:58;19.70;99.90
4081;DHT22;2055;50.074;8.436;2023-08-08T15:29:23;19.70;99.90
4081;DHT22;2055;50.074;8.436;2023-08-08T15:31:49;19.70;99.90
4081;DHT22;2055;50.074;8.436;2023-08-08T15:34:14;20.20;99.90
4081;DHT22;2055;50.074;8.436;2023-08-08T15:36:40;19.80;99.90
4081;DHT22;2055;50.074;8.436;2023-08-08T15:39:05;19.80;99.90
4081;DHT22;2055;50.074;8.436;2023-08-08T15:41:31;19.80;99.90
4081;DHT22;2055;50.074;8.436;2023-08-08T15:43:57;20.10;99.90
4081;DHT22;2055;50.074;8.436;2023-08-08T15:46:22;20.10;99.90
4081;DHT22;2055;50.074;8.436;2023-08-08T15:48:48;20.20;99.90
4081;DHT22;2055;50.074;8.436;2023-08-08T15:51:13;20.30;99.90
4081;DHT22;2055;50.074;8.436;2023-08-08T15:53:39;20.70;99.90
4081;DHT22;2055;50.074;8.436;2023-08-08T15:56:04;21.30;99.90